Time;durP1;ratioP1;P1;durP2;ratioP2;P2;SDS_P1;SDS_P2;PMS_P1;PMS_P2;Temp;Humidity;BMP_temperature;BMP_pressure;BME280_temperature;BME280_humidity;BME280_pressure;Samples;Min_cycle;Max_cycle;Signal;HPM_P1;HPM_P2
2022/12/30 00:01:21;;;;;;;;;3.33;2.33;;;;;10.23;100.00;101028.22;5058524;28;45696;-74
2022/12/30 00:03:47;;;;;;;;;1.00;1.00;;;;;10.22;100.00;101023.78;5063632;28;46699;-75
2022/12/30 00:06:16;;;;;;;;;2.33;1.00;;;;;10.27;100.00;101022.13;5057932;28;45274;-75
2022/12/30 00:08:47;;;;;;;;;7.00;4.00;;;;;10.21;100.00;101017.63;5058175;28;45393;-75
2022/12/30 00:11:20;;;;;;;;;3.33;1.33;;;;;10.20;100.00;101010.56;5057079;28;45328;-77
2022/12/30 00:33:36;;;;;;;;;4.00;1.00;;;;;10.12;100.00;100993.75;5065757;28;45438;-77
2022/12/30 00:36:01;;;;;;;;;1.00;1.00;;;;;10.16;100.00;100998.19;5056346;28;45466;-75
2022/12/30 00:38:26;;;;;;;;;6.00;1.00;;;;;10.13;100.00;101006.09;5057059;28;45370;-75
2022/12/30 00:43:36;;;;;;;;;1.67;1.67;;;;;10.12;100.00;101001.69;5053347;28;45389;-77
2022/12/30 00:46:01;;;;;;;;;2.33;2.33;;;;;10.08;100.00;100993.69;5064174;28;59683;-75
2022/12/30 00:56:42;;;;;;;;;1.00;1.00;;;;;9.97;100.00;100999.69;5045107;28;47479;-74
2022/12/30 00:59:08;;;;;;;;;3.00;2.00;;;;;9.98;100.00;101004.06;5056254;28;45557;-77
2022/12/30 01:01:33;;;;;;;;;1.33;1.00;;;;;9.94;100.00;100983.78;5073225;28;45362;-75
2022/12/30 01:03:58;;;;;;;;;1.67;1.00;;;;;9.94;100.00;100993.44;5057246;28;45526;-76
2022/12/30 01:06:24;;;;;;;;;4.00;1.00;;;;;9.92;100.00;100979.38;5056597;28;61397;-75
2022/12/30 01:08:49;;;;;;;;;0.67;0.67;;;;;9.90;100.00;100976.69;5056652;28;61191;-77
2022/12/30 01:11:14;;;;;;;;;1.00;1.00;;;;;9.93;100.00;100981.13;5057193;28;49256;-75
2022/12/30 01:13:40;;;;;;;;;0.67;0.67;;;;;9.92;100.00;100980.25;5054185;28;52558;-75
2022/12/30 01:16:10;;;;;;;;;0.75;0.25;;;;;9.87;100.00;100971.38;5072208;28;62358;-75
2022/12/30 01:18:36;;;;;;;;;0.00;0.00;;;;;9.86;100.00;100974.00;5056994;28;45330;-76
2022/12/30 01:21:03;;;;;;;;;1.00;1.00;;;;;9.90;100.00;100981.94;5057570;28;45266;-75
2022/12/30 01:23:29;;;;;;;;;1.00;1.00;;;;;9.88;100.00;100969.63;5053926;28;45867;-76
2022/12/30 01:25:54;;;;;;;;;2.00;1.00;;;;;9.89;100.00;100964.34;5056834;28;45606;-74
2022/12/30 01:28:19;;;;;;;;;1.00;0.00;;;;;9.89;100.00;100964.34;5056119;28;45458;-76
2022/12/30 01:30:45;;;;;;;;;0.67;0.00;;;;;9.89;100.00;100958.19;5056333;28;56848;-77
2022/12/30 01:33:10;;;;;;;;;1.33;1.00;;;;;9.83;100.00;100953.72;5056588;28;53824;-74
2022/12/30 01:35:36;;;;;;;;;6.00;2.33;;;;;9.87;100.00;100959.94;5062838;28;63859;-78
2022/12/30 01:38:01;;;;;;;;;2.67;1.00;;;;;9.83;100.00;100963.38;5072495;28;45269;-74
2022/12/30 01:40:27;;;;;;;;;4.00;1.00;;;;;9.84;100.00;100965.16;5056716;28;45529;-76
2022/12/30 01:42:52;;;;;;;;;0.00;0.00;;;;;9.85;100.00;100969.56;5056907;28;45389;-75
2022/12/30 01:45:20;;;;;;;;;2.67;1.00;;;;;9.81;100.00;100959.84;5056149;28;63154;-76
2022/12/30 01:47:52;;;;;;;;;0.00;0.00;;;;;9.81;100.00;100957.22;5071247;28;45308;-76
2022/12/30 01:50:27;;;;;;;;;2.00;1.00;;;;;9.82;100.00;100958.97;5056838;28;45346;-76
2022/12/30 01:53:01;;;;;;;;;0.33;0.33;;;;;9.77;100.00;100944.84;5056926;28;45419;-75
2022/12/30 01:55:57;;;;;;;;;2.00;0.00;;;;;9.85;100.00;100962.53;5072531;28;45440;-78
2022/12/30 01:58:37;;;;;;;;;2.33;1.00;;;;;9.83;100.00;100966.91;5048706;28;45529;-75
2022/12/30 02:01:03;;;;;;;;;1.00;1.00;;;;;9.82;100.00;100958.97;5072614;28;45248;-77
2022/12/30 02:03:37;;;;;;;;;3.67;1.00;;;;;9.80;100.00;100951.06;5056615;28;45458;-75
2022/12/30 02:06:03;;;;;;;;;1.75;1.00;;;;;9.78;100.00;100958.03;5056231;28;45850;-75
2022/12/30 02:08:30;;;;;;;;;0.33;0.33;;;;;9.71;100.00;100946.50;5072152;28;45343;-77
2022/12/30 02:10:55;;;;;;;;;0.67;0.67;;;;;9.76;100.00;100951.84;5073848;28;54712;-74
2022/12/30 02:13:21;;;;;;;;;3.00;0.67;;;;;9.72;100.00;100952.66;5057710;28;45474;-76
2022/12/30 02:15:49;;;;;;;;;3.50;1.00;;;;;9.73;100.00;100964.09;5059858;28;46343;-77
2022/12/30 02:18:31;;;;;;;;;2.00;0.00;;;;;9.70;100.00;100959.66;5060237;28;45496;-74
2022/12/30 02:21:26;;;;;;;;;1.67;1.00;;;;;9.68;100.00;100950.81;5060398;28;45938;-77
2022/12/30 02:24:10;;;;;;;;;1.00;1.00;;;;;9.67;100.00;100951.69;5059956;28;45573;-74
2022/12/30 02:26:35;;;;;;;;;2.67;1.00;;;;;9.65;100.00;100959.59;5059941;28;46580;-78
2022/12/30 02:29:28;;;;;;;;;0.33;0.00;;;;;9.65;100.00;100956.06;5059775;28;45370;-77
2022/12/30 02:32:22;;;;;;;;;2.33;1.00;;;;;9.64;100.00;100949.91;5059928;28;45436;-75
2022/12/30 02:34:53;;;;;;;;;3.75;1.00;;;;;9.65;100.00;100950.78;5053162;28;45513;-74
2022/12/30 02:37:55;;;;;;;;;1.33;1.33;;;;;9.65;100.00;100940.25;5059524;28;46278;-75
2022/12/30 02:44:36;;;;;;;;;1.75;1.75;;;;;9.64;100.00;100935.81;5037534;28;45521;-75
2022/12/30 02:46:07;;;;;;;;;3.00;1.75;;;;;9.62;100.00;100934.91;5071530;28;45445;-75
2022/12/30 02:48:34;;;;;;;;;1.00;1.00;;;;;9.62;100.00;100932.28;5048687;28;46447;-74
2022/12/30 02:53:45;;;;;;;;;3.00;1.33;;;;;9.62;100.00;100930.53;5058678;28;45402;-74
2022/12/30 02:56:10;;;;;;;;;2.00;2.00;;;;;9.64;100.00;100935.81;5058621;28;53966;-75
2022/12/30 02:58:38;;;;;;;;;5.33;1.00;;;;;9.62;100.00;100925.25;5072163;28;47316;-76
2022/12/30 03:04:28;;;;;;;;;5.00;2.00;;;;;9.69;100.00;100915.69;5055319;28;45473;-74
2022/12/30 03:07:01;;;;;;;;;3.00;1.00;;;;;9.64;100.00;100896.28;5067845;28;45259;-75
2022/12/30 03:12:57;;;;;;;;;5.00;2.00;;;;;9.74;100.00;100910.50;5046823;28;45441;-74
2022/12/30 03:15:28;;;;;;;;;2.50;2.00;;;;;9.75;100.00;100907.91;5074494;28;45434;-75
2022/12/30 03:17:54;;;;;;;;;3.00;1.25;;;;;9.75;100.00;100897.34;5075214;28;45339;-77
2022/12/30 03:20:21;;;;;;;;;3.75;2.50;;;;;9.77;100.00;100895.63;5058662;28;64693;-76
2022/12/30 03:28:18;;;;;;;;;3.67;2.00;;;;;9.80;100.00;100884.22;5058325;28;45276;-80
2022/12/30 03:30:46;;;;;;;;;3.00;1.00;;;;;9.83;100.00;100871.97;5047134;28;46631;-79
2022/12/30 03:33:12;;;;;;;;;6.67;3.00;;;;;9.87;100.00;100876.44;5057502;28;45435;-76
2022/12/30 03:35:43;;;;;;;;;2.00;2.00;;;;;9.89;100.00;100879.97;5057561;28;45344;-75
2022/12/30 03:38:10;;;;;;;;;7.33;2.00;;;;;9.88;100.00;100880.84;5059147;28;45442;-77
2022/12/30 03:40:39;;;;;;;;;2.00;2.00;;;;;9.90;100.00;100883.47;5058349;28;59376;-76
2022/12/30 03:43:06;;;;;;;;;2.00;2.00;;;;;9.90;100.00;100873.81;5054093;28;45423;-75
2022/12/30 03:45:31;;;;;;;;;2.67;2.33;;;;;9.94;100.00;100880.91;5057906;28;45189;-76
2022/12/30 03:47:56;;;;;;;;;4.50;3.25;;;;;9.91;100.00;100867.69;5046402;28;45567;-75
2022/12/30 03:50:22;;;;;;;;;5.67;2.67;;;;;9.92;100.00;100861.56;5058439;28;46227;-74
2022/12/30 03:52:47;;;;;;;;;3.75;2.25;;;;;9.98;100.00;100866.03;5057839;28;57605;-74
2022/12/30 03:55:12;;;;;;;;;6.00;1.33;;;;;9.97;100.00;100856.34;5058220;28;54308;-77
2022/12/30 03:57:38;;;;;;;;;1.00;1.00;;;;;9.97;100.00;100849.31;5058665;28;45458;-75
2022/12/30 04:00:08;;;;;;;;;2.25;2.00;;;;;10.00;100.00;100845.81;5058190;28;45441;-77
2022/12/30 04:02:34;;;;;;;;;3.00;2.00;;;;;9.93;100.00;100836.94;5058323;28;45424;-75
2022/12/30 04:05:00;;;;;;;;;3.33;2.00;;;;;9.96;100.00;100842.28;5058243;28;45288;-77
2022/12/30 04:07:25;;;;;;;;;4.50;2.00;;;;;9.92;100.00;100822.00;5058587;28;45667;-75
2022/12/30 04:09:50;;;;;;;;;2.00;2.00;;;;;9.92;100.00;100819.34;5058012;28;45330;-75
2022/12/30 04:12:16;;;;;;;;;6.00;2.33;;;;;9.80;100.00;100792.84;5054792;28;45257;-76
2022/12/30 04:14:41;;;;;;;;;3.75;1.75;;;;;9.94;100.00;100814.97;5054024;28;57315;-74
2022/12/30 04:17:06;;;;;;;;;6.00;2.25;;;;;9.91;100.00;100807.03;5057974;28;48626;-75
2022/12/30 04:19:32;;;;;;;;;5.25;3.50;;;;;9.90;100.00;100813.16;5057697;28;60686;-76
2022/12/30 04:21:57;;;;;;;;;3.00;1.50;;;;;9.85;100.00;100804.28;5057441;28;52202;-75
2022/12/30 04:24:22;;;;;;;;;5.25;2.75;;;;;9.85;100.00;100804.28;5057930;28;50241;-75
2022/12/30 04:26:48;;;;;;;;;2.00;2.00;;;;;9.89;100.00;100819.31;5058077;28;45599;-75
2022/12/30 04:29:13;;;;;;;;;3.00;2.25;;;;;9.88;100.00;100807.00;5057696;28;58545;-74
2022/12/30 04:31:38;;;;;;;;;1.00;0.00;;;;;9.88;100.00;100814.91;5057749;28;48910;-74
2022/12/30 04:34:04;;;;;;;;;6.00;4.00;;;;;9.97;100.00;100824.69;5054380;28;55636;-74
2022/12/30 04:36:29;;;;;;;;;4.50;3.00;;;;;9.95;100.00;100816.75;5057439;28;53561;-75
2022/12/30 04:38:55;;;;;;;;;5.75;3.25;;;;;9.97;100.00;100814.16;5057608;28;54018;-75
2022/12/30 04:41:21;;;;;;;;;6.75;6.25;;;;;10.01;100.00;100812.41;5057685;28;45390;-76
2022/12/30 04:43:47;;;;;;;;;8.50;3.50;;;;;10.02;100.00;100806.31;5058227;28;46183;-74
2022/12/30 04:46:13;;;;;;;;;3.00;3.00;;;;;10.02;100.00;100798.38;5055597;28;45251;-76
2022/12/30 04:48:38;;;;;;;;;3.00;3.00;;;;;10.04;100.00;100801.91;5063434;28;46399;-74
2022/12/30 04:51:04;;;;;;;;;4.00;3.00;;;;;10.00;100.00;100789.53;5056674;28;58486;-77
2022/12/30 04:53:29;;;;;;;;;5.50;3.00;;;;;10.05;100.00;100801.03;5057936;28;45274;-75
2022/12/30 04:55:55;;;;;;;;;4.00;2.75;;;;;10.06;100.00;100785.22;5057270;28;49542;-76
2022/12/30 04:58:21;;;;;;;;;3.25;3.25;;;;;10.05;100.00;100777.31;5057363;28;45251;-75
2022/12/30 05:00:48;;;;;;;;;4.00;3.00;;;;;10.08;100.00;100770.31;5057577;28;45528;-74
2022/12/30 05:03:13;;;;;;;;;3.00;3.00;;;;;10.03;100.00;100763.22;5057444;28;45403;-76
2022/12/30 05:05:39;;;;;;;;;6.67;4.00;;;;;10.07;100.00;100771.19;5073142;28;45593;-76
2022/12/30 05:08:04;;;;;;;;;2.00;2.00;;;;;10.08;100.00;100770.31;5072233;28;61383;-75
2022/12/30 05:10:30;;;;;;;;;4.25;4.00;;;;;10.03;100.00;100763.22;5057382;28;45502;-75
2022/12/30 05:12:55;;;;;;;;;5.50;3.00;;;;;10.01;100.00;100751.75;5055879;28;56768;-76
2022/12/30 05:15:20;;;;;;;;;4.00;3.00;;;;;10.00;100.00;100742.94;5056317;28;54685;-74
2022/12/30 05:17:46;;;;;;;;;6.00;2.00;;;;;10.05;100.00;100737.72;5072926;28;47046;-76
2022/12/30 05:20:11;;;;;;;;;8.00;2.75;;;;;10.06;100.00;100727.19;5056975;28;45274;-74
2022/12/30 05:22:36;;;;;;;;;3.33;2.00;;;;;10.03;100.00;100718.38;5057627;28;45287;-77
2022/12/30 05:27:46;;;;;;;;;10.25;4.00;;;;;10.09;100.00;100716.69;5057200;28;45337;-78
2022/12/30 05:30:11;;;;;;;;;2.25;2.00;;;;;10.05;100.00;100720.16;5056217;28;59994;-75
2022/12/30 05:32:36;;;;;;;;;3.00;2.00;;;;;10.06;100.00;100723.66;5055921;28;45421;-75
2022/12/30 05:35:02;;;;;;;;;6.67;2.00;;;;;10.14;100.00;100716.75;5056699;28;48699;-75
2022/12/30 05:39:52;;;;;;;;;2.00;2.00;;;;;10.14;100.00;100711.47;4940139;22;74296;-74
2022/12/30 05:42:18;;;;;;;;;4.75;3.00;;;;;10.09;100.00;100694.69;5087248;27;50318;-76
2022/12/30 05:44:43;;;;;;;;;2.00;2.00;;;;;10.16;100.00;100694.75;5090744;27;45327;-78
2022/12/30 05:47:09;;;;;;;;;2.67;2.67;;;;;10.18;100.00;100690.41;5088287;27;45604;-74
2022/12/30 05:49:34;;;;;;;;;8.00;3.00;;;;;10.22;100.00;100686.03;5077595;27;45475;-77
2022/12/30 05:51:59;;;;;;;;;2.00;1.00;;;;;10.16;100.00;100659.59;5087970;27;54848;-76
2022/12/30 05:54:24;;;;;;;;;1.33;1.33;;;;;10.25;100.00;100667.63;5092324;27;52534;-75
2022/12/30 05:56:50;;;;;;;;;2.67;2.00;;;;;10.26;100.00;100671.16;5097460;27;46679;-76
2022/12/30 05:59:15;;;;;;;;;7.00;1.33;;;;;10.24;100.00;100652.69;5092978;27;51775;-77
2022/12/30 06:01:41;;;;;;;;;1.67;1.33;;;;;10.28;100.00;100656.22;5096126;27;57773;-75
2022/12/30 06:04:06;;;;;;;;;1.67;1.67;;;;;10.22;100.00;100636.78;5094845;27;45176;-75
2022/12/30 06:06:31;;;;;;;;;0.67;0.67;;;;;10.25;100.00;100643.88;5092993;27;63405;-75
2022/12/30 06:08:57;;;;;;;;;1.67;1.00;;;;;10.29;100.00;100631.63;5087780;27;57107;-74
2022/12/30 06:11:22;;;;;;;;;2.00;0.00;;;;;10.35;100.00;100636.94;5092601;27;45245;-74
2022/12/30 06:13:47;;;;;;;;;1.00;1.00;;;;;10.37;100.00;100622.88;5089318;27;49426;-77
2022/12/30 06:16:13;;;;;;;;;3.00;0.00;;;;;10.35;100.00;100614.06;5078571;27;46336;-79
2022/12/30 06:18:38;;;;;;;;;6.00;1.00;;;;;10.36;100.00;100607.03;5075731;27;57868;-74
2022/12/30 06:21:04;;;;;;;;;1.33;0.67;;;;;10.44;100.00;100605.34;5087367;27;51543;-75
2022/12/30 06:23:29;;;;;;;;;4.00;1.00;;;;;10.41;100.00;100600.03;5075848;27;45511;-78
2022/12/30 06:25:56;;;;;;;;;2.00;1.00;;;;;10.42;100.00;100586.84;5067200;27;46798;-75
2022/12/30 06:28:22;;;;;;;;;4.00;0.67;;;;;10.52;100.00;100592.19;5078500;27;45431;-75
2022/12/30 06:30:48;;;;;;;;;0.00;0.00;;;;;10.51;100.00;100586.03;5078908;27;45336;-74
2022/12/30 06:33:14;;;;;;;;;3.33;1.00;;;;;10.52;100.00;100579.00;5094381;27;45280;-76
2022/12/30 06:35:39;;;;;;;;;5.33;0.33;;;;;10.41;100.00;100544.59;5082534;27;46072;-79
2022/12/30 06:38:04;;;;;;;;;2.33;0.67;;;;;10.52;100.00;100553.47;5065521;27;58001;-77
2022/12/30 06:40:30;;;;;;;;;1.00;1.00;;;;;10.56;100.00;100549.13;5079936;27;45433;-76
2022/12/30 06:42:55;;;;;;;;;3.00;2.00;;;;;10.55;100.00;100534.16;5080457;27;53975;-75
2022/12/30 06:45:20;;;;;;;;;3.00;0.00;;;;;10.62;100.00;100525.38;5077003;27;61361;-76
2022/12/30 06:47:46;;;;;;;;;2.00;2.00;;;;;10.59;100.00;100517.44;5077905;27;57405;-77
2022/12/30 06:50:11;;;;;;;;;1.00;1.00;;;;;10.68;100.00;100530.69;5087980;27;45166;-74
2022/12/30 06:52:37;;;;;;;;;1.00;1.00;;;;;10.65;100.00;100528.03;5057689;28;45464;-77
2022/12/30 06:55:03;;;;;;;;;4.33;1.00;;;;;10.65;100.00;100526.31;5074889;28;52397;-78
2022/12/30 06:57:28;;;;;;;;;1.33;1.33;;;;;10.66;100.00;100519.25;5089162;27;45644;-74
2022/12/30 06:59:54;;;;;;;;;2.00;1.00;;;;;10.73;100.00;100521.03;5094755;27;45516;-74
2022/12/30 07:02:19;;;;;;;;;3.00;2.00;;;;;10.69;100.00;100509.56;5094505;27;45278;-74
2022/12/30 07:04:44;;;;;;;;;0.67;0.67;;;;;10.69;100.00;100498.13;5089448;27;62209;-75
2022/12/30 07:07:10;;;;;;;;;4.00;1.00;;;;;10.72;100.00;100490.25;5091746;27;57737;-77
2022/12/30 07:09:35;;;;;;;;;1.67;1.00;;;;;10.79;100.00;100493.78;5085863;27;51950;-74
2022/12/30 07:12:00;;;;;;;;;1.00;1.00;;;;;10.79;100.00;100484.09;5086414;27;56196;-76
2022/12/30 07:14:26;;;;;;;;;1.00;1.00;;;;;10.79;100.00;100483.22;5083941;27;46764;-75
2022/12/30 07:16:51;;;;;;;;;2.00;0.00;;;;;10.75;100.00;100470.00;5085906;27;55762;-74
2022/12/30 07:19:16;;;;;;;;;2.00;0.00;;;;;10.83;100.00;100464.75;5081766;27;55007;-77
2022/12/30 07:21:42;;;;;;;;;1.00;0.00;;;;;10.86;100.00;100450.66;5063499;27;55335;-75
2022/12/30 07:24:08;;;;;;;;;1.00;1.00;;;;;10.87;100.00;100463.03;5079720;27;46586;-75
2022/12/30 07:26:33;;;;;;;;;0.67;0.67;;;;;10.87;100.00;100448.06;5092405;27;45338;-77
2022/12/30 07:28:58;;;;;;;;;1.33;1.33;;;;;10.88;100.00;100441.88;5079371;27;45322;-76
2022/12/30 07:31:24;;;;;;;;;2.67;0.33;;;;;10.90;100.00;100442.75;5096063;27;45338;-75
2022/12/30 07:33:49;;;;;;;;;2.33;0.67;;;;;10.92;100.00;100442.75;5084619;27;61904;-75
2022/12/30 07:36:14;;;;;;;;;1.33;1.00;;;;;10.87;100.00;100424.28;5088229;27;54924;-75
2022/12/30 07:38:40;;;;;;;;;2.67;1.00;;;;;10.94;100.00;100418.13;5087052;27;45180;-75
2022/12/30 07:41:06;;;;;;;;;2.00;0.00;;;;;10.95;100.00;100411.09;5099102;27;51757;-75
2022/12/30 07:43:31;;;;;;;;;1.00;1.00;;;;;10.97;100.00;100415.50;5080884;27;46340;-75
2022/12/30 07:45:57;;;;;;;;;0.00;0.00;;;;;10.96;100.00;100413.72;5079527;27;45179;-77
2022/12/30 07:48:22;;;;;;;;;1.00;1.00;;;;;10.96;100.00;100411.09;5081239;27;45344;-77
2022/12/30 07:50:47;;;;;;;;;0.00;0.00;;;;;11.01;100.00;100429.59;5080912;27;54332;-75
2022/12/30 07:53:13;;;;;;;;;1.33;1.00;;;;;11.02;100.00;100420.78;5084818;27;58929;-75
2022/12/30 07:55:39;;;;;;;;;1.00;1.00;;;;;11.04;100.00;100431.38;5098887;27;59713;-76
2022/12/30 07:58:05;;;;;;;;;2.00;0.67;;;;;11.08;100.00;100431.38;5099245;27;45319;-79
2022/12/30 08:00:31;;;;;;;;;3.00;1.00;;;;;11.05;100.00;100417.28;5081060;27;45303;-76
2022/12/30 08:02:56;;;;;;;;;0.33;0.33;;;;;11.10;100.00;100426.09;5098303;27;59916;-76
2022/12/30 08:05:22;;;;;;;;;0.00;0.00;;;;;11.08;100.00;100417.28;5098521;27;58970;-76
2022/12/30 08:07:47;;;;;;;;;1.00;0.67;;;;;11.14;100.00;100422.59;5080448;27;45588;-74
2022/12/30 08:10:12;;;;;;;;;3.67;0.33;;;;;11.17;100.00;100412.00;5098494;27;53377;-75
2022/12/30 08:12:38;;;;;;;;;1.00;1.00;;;;;11.17;100.00;100419.94;5074374;27;45650;-76
2022/12/30 08:15:04;;;;;;;;;0.33;0.33;;;;;11.15;100.00;100376.78;5098494;27;57056;-76
2022/12/30 08:17:29;;;;;;;;;1.67;1.00;;;;;11.21;100.00;100384.72;5098973;27;45232;-74
2022/12/30 08:19:55;;;;;;;;;0.00;0.00;;;;;11.20;100.00;100378.56;5098828;27;45431;-75
2022/12/30 08:22:20;;;;;;;;;1.33;1.00;;;;;11.17;100.00;100373.25;5098201;27;58964;-74
2022/12/30 08:24:45;;;;;;;;;1.00;1.00;;;;;11.22;100.00;100386.47;5080158;27;58066;-78
2022/12/30 08:27:11;;;;;;;;;0.00;0.00;;;;;11.19;100.00;100368.00;5063202;27;57961;-76
2022/12/30 08:29:36;;;;;;;;;2.00;0.67;;;;;11.25;100.00;100378.56;5080383;27;45599;-74
2022/12/30 08:32:01;;;;;;;;;0.00;0.00;;;;;11.21;100.00;100366.22;5098166;27;58363;-75
2022/12/30 08:34:27;;;;;;;;;2.33;0.00;;;;;11.18;100.00;100355.63;5097852;27;57646;-76
2022/12/30 08:36:52;;;;;;;;;0.33;0.33;;;;;11.16;100.00;100353.00;5080403;27;45276;-76
2022/12/30 08:39:18;;;;;;;;;0.00;0.00;;;;;11.21;100.00;100353.88;5098562;27;45486;-74
2022/12/30 08:41:45;;;;;;;;;0.00;0.00;;;;;11.15;100.00;100340.66;5098653;27;46467;-76
2022/12/30 08:44:10;;;;;;;;;5.00;0.33;;;;;11.12;100.00;100331.84;5078839;27;46150;-77
2022/12/30 08:46:37;;;;;;;;;2.00;0.33;;;;;11.13;100.00;100334.50;5066060;27;58688;-77
2022/12/30 08:49:03;;;;;;;;;0.00;0.00;;;;;11.13;100.00;100316.03;5097362;27;45565;-76
2022/12/30 08:51:29;;;;;;;;;1.67;0.33;;;;;11.18;100.00;100329.22;5079305;27;46425;-76
2022/12/30 08:53:55;;;;;;;;;2.00;0.67;;;;;11.18;100.00;100319.50;5098508;27;45315;-74
2022/12/30 08:56:27;;;;;;;;;1.67;0.00;;;;;11.20;100.00;100323.06;5096698;27;45493;-76
2022/12/30 08:58:53;;;;;;;;;1.00;1.00;;;;;11.20;100.00;100295.75;5100655;27;45403;-76
2022/12/30 09:01:21;;;;;;;;;1.00;1.00;;;;;11.15;100.00;100290.47;5093845;27;45815;-75
2022/12/30 09:03:48;;;;;;;;;0.67;0.00;;;;;11.16;100.00;100291.34;5080038;27;45402;-76
2022/12/30 09:06:14;;;;;;;;;0.00;0.00;;;;;11.12;100.00;100279.00;5091536;27;45538;-75
2022/12/30 09:08:40;;;;;;;;;0.33;0.00;;;;;11.19;100.00;100289.59;5083208;27;45407;-76
2022/12/30 09:11:07;;;;;;;;;0.33;0.33;;;;;11.19;100.00;100271.09;5068340;28;46823;-75
2022/12/30 09:13:36;;;;;;;;;2.00;0.00;;;;;11.14;100.00;100264.06;5074565;27;46656;-75
2022/12/30 09:16:02;;;;;;;;;0.33;0.33;;;;;11.18;100.00;100263.16;5079526;27;45223;-76
2022/12/30 09:18:28;;;;;;;;;0.00;0.00;;;;;11.12;100.00;100253.47;5086680;27;45476;-75
2022/12/30 09:20:53;;;;;;;;;0.00;0.00;;;;;11.13;100.00;100246.41;5089213;27;46575;-75
2022/12/30 09:23:18;;;;;;;;;0.67;0.67;;;;;11.14;100.00;100253.50;5091907;27;45205;-78
2022/12/30 09:25:44;;;;;;;;;2.67;1.00;;;;;11.12;100.00;100250.81;5098015;27;45539;-75
2022/12/30 09:28:09;;;;;;;;;1.00;0.00;;;;;11.12;100.00;100234.97;5075762;28;48919;-75
2022/12/30 09:30:34;;;;;;;;;1.00;1.00;;;;;11.13;100.00;100238.47;5095489;27;62197;-75
2022/12/30 09:33:00;;;;;;;;;0.00;0.00;;;;;11.16;100.00;100235.84;5095472;27;60320;-77
2022/12/30 09:35:25;;;;;;;;;0.67;0.00;;;;;11.18;100.00;100236.72;5089950;27;55922;-75
2022/12/30 09:37:50;;;;;;;;;0.00;0.00;;;;;11.16;100.00;100226.16;5087894;27;45450;-75
2022/12/30 09:40:19;;;;;;;;;2.00;1.00;;;;;11.18;100.00;100234.97;5078265;27;61828;-74
2022/12/30 09:45:56;;;;;;;;;0.67;0.33;;;;;11.17;100.00;100222.63;5082295;27;45394;-75
2022/12/30 09:48:25;;;;;;;;;1.00;1.00;;;;;11.16;100.00;100212.06;5096199;27;45455;-74
2022/12/30 09:51:01;;;;;;;;;0.00;0.00;;;;;11.15;100.00;100198.00;5079188;27;46116;-76
2022/12/30 09:53:42;;;;;;;;;0.67;0.00;;;;;11.19;100.00;100212.09;5097197;27;45329;-75
2022/12/30 09:56:15;;;;;;;;;1.33;0.00;;;;;11.13;100.00;100188.28;5094788;27;45445;-75
2022/12/30 09:58:43;;;;;;;;;1.33;0.33;;;;;11.13;100.00;100161.88;5084250;27;45379;-74
2022/12/30 10:01:20;;;;;;;;;0.00;0.00;;;;;11.17;100.00;100145.13;5093375;27;45587;-76
2022/12/30 10:03:46;;;;;;;;;1.67;0.33;;;;;11.16;100.00;100156.59;5092792;27;45466;-74
2022/12/30 10:06:36;;;;;;;;;1.00;1.00;;;;;11.20;100.00;100143.38;5089452;27;45321;-75
2022/12/30 10:09:21;;;;;;;;;2.00;0.00;;;;;11.19;100.00;100149.53;5092816;27;45346;-75
2022/12/30 10:11:50;;;;;;;;;0.33;0.33;;;;;11.21;100.00;100133.69;5091475;27;47440;-76
2022/12/30 10:14:43;;;;;;;;;0.00;0.00;;;;;11.23;100.00;100139.81;5092890;27;45209;-75
2022/12/30 10:17:36;;;;;;;;;1.00;1.00;;;;;11.23;100.00;100118.69;5090214;27;45338;-75
2022/12/30 10:20:25;;;;;;;;;0.67;0.67;;;;;11.23;100.00;100108.13;5092120;27;45402;-76
2022/12/30 10:23:05;;;;;;;;;1.00;1.00;;;;;11.24;100.00;100099.31;5069629;27;46847;-76
2022/12/30 10:26:13;;;;;;;;;1.00;0.00;;;;;11.24;100.00;100076.41;5096832;27;45406;-74
2022/12/30 10:28:45;;;;;;;;;0.00;0.00;;;;;11.24;100.00;100096.69;5088377;27;45383;-77
2022/12/30 10:31:18;;;;;;;;;0.00;0.00;;;;;11.32;100.00;100057.88;5080155;27;45600;-74
2022/12/30 10:33:44;;;;;;;;;0.00;0.00;;;;;11.34;100.00;100086.94;5100555;27;47037;-75
2022/12/30 10:36:18;;;;;;;;;0.00;0.00;;;;;11.33;100.00;100080.78;5098936;27;45525;-75
2022/12/30 10:38:44;;;;;;;;;0.00;0.00;;;;;11.39;100.00;100075.44;5099400;27;45203;-75
2022/12/30 10:41:32;;;;;;;;;0.00;0.00;;;;;11.46;100.00;100084.25;5099921;27;56932;-76
2022/12/30 10:44:03;;;;;;;;;0.00;0.00;;;;;11.48;100.00;100046.34;5084640;27;46111;-75
2022/12/30 10:46:49;;;;;;;;;0.00;0.00;;;;;11.57;100.00;100057.75;5099485;27;45433;-76
2022/12/30 10:49:35;;;;;;;;;0.00;0.00;;;;;11.60;100.00;100050.66;5099113;27;45381;-74
2022/12/30 10:52:01;;;;;;;;;0.00;0.00;;;;;11.69;100.00;100044.47;5080078;27;45542;-77
2022/12/30 10:54:26;;;;;;;;;0.00;0.00;;;;;11.75;100.00;100039.13;5095218;27;45403;-76
2022/12/30 10:56:52;;;;;;;;;0.00;0.00;;;;;11.77;100.00;99998.56;5081219;27;59149;-74
2022/12/30 10:59:23;;;;;;;;;0.00;0.00;;;;;11.81;100.00;100028.50;5096312;27;52758;-76
2022/12/30 11:01:51;;;;;;;;;0.00;0.00;;;;;11.90;100.00;100036.41;5089388;27;45376;-75
2022/12/30 11:04:36;;;;;;;;;0.00;0.00;;;;;11.93;100.00;100011.69;5081682;27;45598;-76
2022/12/30 11:07:05;;;;;;;;;1.00;0.00;;;;;12.04;100.00;99973.69;5093261;27;45352;-75
2022/12/30 11:09:30;;;;;;;;;0.00;0.00;;;;;12.06;100.00;99960.44;5075308;27;45434;-74
2022/12/30 11:15:09;;;;;;;;;0.00;0.00;;;;;12.11;100.00;99979.81;5094411;27;45461;-76
2022/12/30 11:18:01;;;;;;;;;0.67;0.00;;;;;12.21;100.00;100007.06;5074257;28;45221;-75
2022/12/30 11:20:36;;;;;;;;;0.33;0.00;;;;;12.22;100.00;99998.22;5088883;27;54062;-76
2022/12/30 11:23:23;;;;;;;;;1.00;0.00;;;;;12.43;100.00;99984.78;5044996;28;45542;-75
2022/12/30 11:25:49;;;;;;;;;0.00;0.00;;;;;12.49;100.00;99979.44;5088297;27;46498;-75
2022/12/30 11:28:15;;;;;;;;;0.00;0.00;;;;;12.55;100.00;99989.94;5097833;27;45418;-75
2022/12/30 11:30:53;;;;;;;;;0.00;0.00;;;;;12.65;100.00;99977.50;5081146;27;45239;-74
2022/12/30 11:33:25;;;;;;;;;0.00;0.00;;;;;12.69;100.00;99965.09;5077813;28;45523;-78
2022/12/30 11:35:51;;;;;;;;;0.67;0.00;;;;;12.76;100.00;99953.53;5076594;27;45376;-77
2022/12/30 11:38:34;;;;;;;;;0.00;0.00;;;;;12.93;100.00;99966.56;5089480;27;45439;-76
2022/12/30 11:41:29;;;;;;;;;0.33;0.00;;;;;12.99;100.00;99971.78;5080400;27;45386;-76
2022/12/30 11:44:05;;;;;;;;;0.00;0.00;;;;;13.06;100.00;99955.81;5087044;27;45315;-77
2022/12/30 11:46:35;;;;;;;;;0.00;0.00;;;;;13.05;100.00;99948.75;5079812;27;46076;-76
2022/12/30 11:49:03;;;;;;;;;0.00;0.00;;;;;13.01;100.00;99932.91;5098855;27;45369;-76
2022/12/30 11:51:41;;;;;;;;;0.00;0.00;;;;;13.01;100.00;99957.63;5081378;27;45634;-76
2022/12/30 11:54:12;;;;;;;;;0.00;0.00;;;;;12.99;100.00;99967.34;5097812;27;45264;-75
2022/12/30 11:56:50;;;;;;;;;0.00;0.00;;;;;13.01;100.00;99939.09;5096762;27;45432;-77
2022/12/30 11:59:19;;;;;;;;;0.00;0.00;;;;;12.97;100.00;99932.06;5088246;27;45312;-75
2022/12/30 12:01:49;;;;;;;;;0.00;0.00;;;;;13.02;100.00;99951.44;5097544;27;45373;-76
2022/12/30 12:04:39;;;;;;;;;0.00;0.00;;;;;13.01;100.00;99957.63;5080982;27;45399;-75
2022/12/30 12:07:26;;;;;;;;;0.00;0.00;;;;;13.10;100.00;99946.91;5092312;27;46806;-77
2022/12/30 12:09:57;;;;;;;;;0.00;0.00;;;;;13.17;100.00;99920.31;5081156;27;45287;-76
2022/12/30 12:12:27;;;;;;;;;0.00;0.00;;;;;13.28;100.00;99936.97;5078065;27;45356;-79
2022/12/30 12:15:13;;;;;;;;;0.00;0.00;;;;;13.31;100.00;99950.19;5081154;27;45385;-76
2022/12/30 12:18:11;;;;;;;;;1.00;0.00;;;;;13.26;100.00;99950.28;5090488;27;45810;-76
2022/12/30 12:20:44;;;;;;;;;0.00;0.00;;;;;13.31;100.00;99931.63;5082514;27;45281;-74
2022/12/30 12:23:26;;;;;;;;;0.00;0.00;;;;;13.38;100.00;99927.13;5080674;27;45450;-75
2022/12/30 12:25:57;;;;;;;;;0.00;0.00;;;;;13.45;100.00;99940.25;5087918;27;45470;-76
2022/12/30 12:28:25;;;;;;;;;0.00;0.00;;;;;13.47;100.00;99933.13;5096139;27;45708;-78